This is the latest recevied weather packets stored in our database for station/object OE-11073. If no packets are shown the sender has not sent any weather packets the latest 10 day(s).
| Time | Temp. | Humidity | Pressure | Rain* | Wind** | Luminosity | Snow |
|---|---|---|---|---|---|---|---|
| 1788474311 | 18.89° C | 69% | - | 0 mm | - | 0 W/m² | - |
| 1788473484 | 18.89° C | 68% | - | 0 mm | - | 0 W/m² | - |
| 1788472511 | 19.44° C | 66% | - | 0 mm | - | 0 W/m² | - |
| 1788471311 | 19.44° C | 66% | - | 0 mm | - | 0 W/m² | - |
| 1788470711 | 18.89° C | 69% | - | 0 mm | - | 0 W/m² | - |
| 1788468911 | 18.89° C | 71% | - | 0 mm | - | 0 W/m² | - |
| 1788467711 | 18.89° C | 68% | - | 0 mm | - | 0 W/m² | - |
| 1788467111 | 18.89° C | 69% | - | 0 mm | - | 0 W/m² | - |
| 1788466284 | 19.44° C | 67% | - | 0 mm | - | 0 W/m² | - |
| 1788465911 | 19.44° C | 66% | - | 0 mm | - | 0 W/m² | - |
| 1788465311 | 19.44° C | 65% | - | 0 mm | - | 0 W/m² | - |
| 1788463511 | 19.44° C | 65% | - | 0 mm | - | 0 W/m² | - |
| 1788450912 | 25° C | 44% | - | 0 mm | - | 344 W/m² | - |
| 1788448284 | 24.44° C | 42% | - | 0 mm | - | 306 W/m² | - |
| 1788447911 | 25° C | 43% | - | 0 mm | - | 421 W/m² | - |
| 1788446111 | 25° C | 42% | - | 0 mm | - | 413 W/m² | - |
| 1788444311 | 24.44° C | 39% | - | 0 mm | - | 306 W/m² | - |
| 1788443711 | 25° C | 37% | - | 0 mm | - | 314 W/m² | - |
| 1788442511 | 25° C | 36% | - | 0 mm | - | 444 W/m² | - |
| 1788441911 | 25° C | 40% | - | 0 mm | - | 520 W/m² | - |
| 1788441085 | 24.44° C | 40% | - | 0 mm | - | 428 W/m² | - |
| 1788440711 | 24.44° C | 39% | - | 0 mm | - | 375 W/m² | - |
| 1788438911 | 25.56° C | 40% | - | 0 mm | - | 666 W/m² | - |
| 1788438311 | 25° C | 42% | - | 0 mm | - | 765 W/m² | - |
| 1788437111 | 24.44° C | 46% | - | 0 mm | - | 757 W/m² | - |
* Rain latest hour (hover to see other rain measurements)
** Current wind speed in m/s (hover to see current wind gust speed)